Time;durP1;ratioP1;P1;durP2;ratioP2;P2;SDS_P1;SDS_P2;PMS_P1;PMS_P2;Temp;Humidity;BMP_temperature;BMP_pressure;BME280_temperature;BME280_humidity;BME280_pressure;Samples;Min_cycle;Max_cycle;Signal;HPM_P1;HPM_P2
2023/05/17 00:00:09;;;;;;;3.17;1.48;;;14.70;75.90;;;;;;5035244;28;20026;-70
2023/05/17 00:02:35;;;;;;;1.23;1.13;;;14.70;75.90;;;;;;5035273;28;20022;-70
2023/05/17 00:05:02;;;;;;;1.92;1.30;;;14.70;76.00;;;;;;5035435;28;20108;-70
2023/05/17 00:07:28;;;;;;;1.25;1.08;;;14.70;75.90;;;;;;5035256;28;20410;-69
2023/05/17 00:09:54;;;;;;;1.92;1.27;;;14.70;76.10;;;;;;5035209;28;20047;-69
2023/05/17 00:12:20;;;;;;;2.00;1.10;;;14.60;76.20;;;;;;5035075;28;20025;-69
2023/05/17 00:14:46;;;;;;;1.35;1.25;;;14.60;76.30;;;;;;5035088;28;20068;-69
2023/05/17 00:17:12;;;;;;;1.95;1.60;;;14.60;76.30;;;;;;5035285;28;20108;-69
2023/05/17 00:19:37;;;;;;;1.58;1.30;;;14.60;76.40;;;;;;5035581;28;20021;-69
2023/05/17 00:22:03;;;;;;;1.98;1.30;;;14.60;76.50;;;;;;5035844;28;20036;-70
2023/05/17 00:24:29;;;;;;;1.20;1.10;;;14.60;76.60;;;;;;5034375;28;20022;-69
2023/05/17 00:26:56;;;;;;;1.58;1.45;;;14.60;76.60;;;;;;5035030;28;20363;-69
2023/05/17 00:29:22;;;;;;;1.25;0.95;;;14.60;76.60;;;;;;5035513;28;20017;-69
2023/05/17 00:31:47;;;;;;;2.00;1.20;;;14.60;76.60;;;;;;5035450;28;20036;-70
2023/05/17 00:34:13;;;;;;;2.35;1.10;;;14.50;76.80;;;;;;5034826;28;20073;-69
2023/05/17 00:36:39;;;;;;;3.28;1.40;;;14.50;76.80;;;;;;5034945;28;20030;-69
2023/05/17 00:39:05;;;;;;;1.60;1.48;;;14.50;77.00;;;;;;5035307;28;20037;-69
2023/05/17 00:41:31;;;;;;;1.48;1.38;;;14.50;77.00;;;;;;5034860;28;20072;-69
2023/05/17 00:43:57;;;;;;;3.30;1.50;;;14.50;77.10;;;;;;5035000;28;20041;-69
2023/05/17 00:46:23;;;;;;;2.15;1.50;;;14.50;77.30;;;;;;5035099;28;20068;-69
2023/05/17 00:48:49;;;;;;;2.42;1.75;;;14.50;77.20;;;;;;5035290;28;20026;-69
2023/05/17 00:51:18;;;;;;;2.05;1.67;;;14.50;77.30;;;;;;5034752;28;20026;-69
2023/05/17 00:53:44;;;;;;;4.07;1.70;;;14.50;77.20;;;;;;5034697;28;20447;-69
2023/05/17 00:56:11;;;;;;;2.90;1.75;;;14.50;77.30;;;;;;5034983;28;20026;-69
2023/05/17 00:58:39;;;;;;;4.30;1.67;;;14.40;77.40;;;;;;5034404;28;20088;-69
2023/05/17 01:01:05;;;;;;;3.72;1.95;;;14.40;77.40;;;;;;5034660;28;20037;-69
2023/05/17 01:03:32;;;;;;;2.45;1.50;;;14.40;77.40;;;;;;5034532;28;20061;-69
2023/05/17 01:05:58;;;;;;;4.50;1.92;;;14.40;77.50;;;;;;5034631;28;20355;-69
2023/05/17 01:08:24;;;;;;;3.17;2.10;;;14.40;77.50;;;;;;5034669;28;20025;-69
2023/05/17 01:11:25;;;;;;;2.83;2.10;;;14.40;77.70;;;;;;5034598;28;20036;-69
2023/05/17 01:14:00;;;;;;;2.70;2.20;;;14.40;77.60;;;;;;5023326;28;20037;-69
2023/05/17 01:16:43;;;;;;;5.43;2.58;;;14.40;77.60;;;;;;5034780;28;20025;-69
2023/05/17 01:19:59;;;;;;;2.27;1.93;;;14.40;77.60;;;;;;5034850;28;20041;-69
2023/05/17 01:23:03;;;;;;;1.70;1.60;;;14.30;77.70;;;;;;5034558;28;20389;-69
2023/05/17 01:26:10;;;;;;;5.60;2.03;;;14.30;77.80;;;;;;5033021;28;20037;-69
2023/05/17 01:28:40;;;;;;;3.22;1.75;;;14.40;77.80;;;;;;5032761;28;20061;-69
2023/05/17 01:31:08;;;;;;;5.22;2.38;;;14.30;77.80;;;;;;5016117;28;20033;-69
2023/05/17 01:33:35;;;;;;;3.30;1.92;;;14.30;77.90;;;;;;5033140;28;20032;-70
2023/05/17 01:36:01;;;;;;;2.90;2.03;;;14.30;78.00;;;;;;5034836;28;20037;-69
2023/05/17 01:38:27;;;;;;;5.88;2.60;;;14.30;78.00;;;;;;5036667;28;20034;-69
2023/05/17 01:41:12;;;;;;;4.50;2.42;;;14.30;78.20;;;;;;5036188;28;20029;-69
2023/05/17 01:43:49;;;;;;;3.83;2.80;;;14.30;78.00;;;;;;5036308;28;20022;-69
2023/05/17 01:46:38;;;;;;;3.30;2.35;;;14.30;77.90;;;;;;5036235;28;20087;-69
2023/05/17 01:49:20;;;;;;;2.63;2.42;;;14.30;78.00;;;;;;5036311;28;20067;-69
2023/05/17 01:52:22;;;;;;;3.92;2.25;;;14.20;78.00;;;;;;5036429;28;20506;-69
2023/05/17 01:54:48;;;;;;;4.82;2.78;;;14.20;78.10;;;;;;5036053;28;20033;-69
2023/05/17 01:57:18;;;;;;;6.00;3.63;;;14.20;78.50;;;;;;5037505;28;20409;-69
2023/05/17 01:59:46;;;;;;;3.20;2.55;;;14.10;79.20;;;;;;5038101;28;20017;-69
2023/05/17 02:02:12;;;;;;;4.32;2.90;;;14.10;78.70;;;;;;5037457;28;20033;-69
2023/05/17 02:04:38;;;;;;;6.82;3.40;;;14.10;78.70;;;;;;5037612;28;20025;-69
2023/05/17 02:07:04;;;;;;;3.85;2.70;;;14.10;78.90;;;;;;5037321;28;20320;-69
2023/05/17 02:09:30;;;;;;;3.65;2.45;;;14.00;78.70;;;;;;5037304;28;20022;-69
2023/05/17 02:11:56;;;;;;;4.50;2.38;;;14.00;78.70;;;;;;5037516;28;20032;-69
2023/05/17 02:14:22;;;;;;;4.82;2.67;;;14.00;78.70;;;;;;5037669;28;20067;-69
2023/05/17 02:16:48;;;;;;;5.20;2.70;;;14.00;78.70;;;;;;5037113;28;20029;-69
2023/05/17 02:19:14;;;;;;;4.85;2.60;;;14.10;78.80;;;;;;5037149;28;20057;-69
2023/05/17 02:21:40;;;;;;;3.30;2.58;;;14.10;78.80;;;;;;5037069;28;20458;-71
2023/05/17 02:24:06;;;;;;;5.72;3.17;;;14.00;78.80;;;;;;5037018;28;20032;-69
2023/05/17 02:26:32;;;;;;;3.15;2.83;;;14.10;78.90;;;;;;5037306;28;20018;-69
2023/05/17 02:28:58;;;;;;;5.53;2.97;;;14.10;78.90;;;;;;5037220;28;20465;-69
2023/05/17 02:31:25;;;;;;;5.53;3.40;;;14.00;79.00;;;;;;5036932;28;20425;-69
2023/05/17 02:33:52;;;;;;;6.00;3.17;;;14.00;79.30;;;;;;5036777;28;20128;-69
2023/05/17 02:36:18;;;;;;;4.00;2.80;;;14.00;79.30;;;;;;5037270;28;20087;-69
2023/05/17 02:38:44;;;;;;;7.15;4.28;;;14.00;79.20;;;;;;5037013;28;20025;-69
2023/05/17 02:41:10;;;;;;;4.10;2.75;;;14.00;79.80;;;;;;5037219;28;20423;-69
2023/05/17 02:43:36;;;;;;;3.53;2.25;;;14.00;79.40;;;;;;5036882;28;20132;-69
2023/05/17 02:46:02;;;;;;;6.85;2.60;;;14.00;79.30;;;;;;5036701;28;20423;-69
2023/05/17 02:48:27;;;;;;;3.13;2.33;;;14.00;79.30;;;;;;5036932;28;20033;-69
2023/05/17 02:50:53;;;;;;;4.88;2.85;;;14.00;79.30;;;;;;5037017;28;20037;-69
2023/05/17 02:53:19;;;;;;;3.67;2.50;;;14.00;79.40;;;;;;5036747;28;20061;-69
2023/05/17 02:55:45;;;;;;;2.53;2.30;;;14.00;79.60;;;;;;5036367;28;20108;-69
2023/05/17 02:58:11;;;;;;;2.95;2.22;;;14.00;79.50;;;;;;5036220;28;20037;-69
2023/05/17 03:00:37;;;;;;;2.95;2.25;;;14.00;79.40;;;;;;5036603;28;20029;-69
2023/05/17 03:03:03;;;;;;;3.45;2.53;;;14.00;79.40;;;;;;5036816;28;20029;-69
2023/05/17 03:05:29;;;;;;;3.85;2.40;;;14.00;79.50;;;;;;5036187;28;20103;-69
2023/05/17 03:07:55;;;;;;;4.32;2.33;;;14.00;79.40;;;;;;5036484;28;20025;-69
2023/05/17 03:10:21;;;;;;;2.38;2.15;;;14.00;79.40;;;;;;5036427;28;20425;-69
2023/05/17 03:12:47;;;;;;;2.60;2.40;;;14.00;79.50;;;;;;5036381;28;20041;-69
2023/05/17 03:15:13;;;;;;;4.35;2.30;;;14.00;79.50;;;;;;5036306;28;20349;-69
2023/05/17 03:17:39;;;;;;;3.33;2.45;;;14.00;79.50;;;;;;5035971;28;20061;-69
2023/05/17 03:20:06;;;;;;;5.68;2.90;;;14.00;79.40;;;;;;5036233;28;20039;-69
2023/05/17 03:22:32;;;;;;;2.65;2.45;;;14.00;79.40;;;;;;5036251;28;20096;-69
2023/05/17 03:24:58;;;;;;;3.22;2.65;;;14.00;79.50;;;;;;5035885;28;20120;-69
2023/05/17 03:27:24;;;;;;;4.82;2.53;;;14.00;79.50;;;;;;5035890;28;20025;-69
2023/05/17 03:29:50;;;;;;;4.40;2.95;;;14.00;79.60;;;;;;5035863;28;20029;-69
2023/05/17 03:32:16;;;;;;;5.93;2.95;;;14.00;79.60;;;;;;5035822;28;20355;-69
2023/05/17 03:34:42;;;;;;;4.07;2.70;;;14.00;79.70;;;;;;5035692;28;20033;-69
2023/05/17 03:37:07;;;;;;;3.92;2.72;;;14.00;79.70;;;;;;5036107;28;20025;-69
2023/05/17 03:39:33;;;;;;;3.88;3.10;;;14.00;79.60;;;;;;5036680;28;20021;-69
2023/05/17 03:42:00;;;;;;;5.28;2.90;;;14.00;79.70;;;;;;5037044;28;20025;-69
2023/05/17 03:44:26;;;;;;;4.53;3.03;;;14.00;79.60;;;;;;5035773;28;20120;-69
2023/05/17 03:46:52;;;;;;;7.70;3.55;;;14.00;79.60;;;;;;5035617;28;20057;-69
2023/05/17 03:49:18;;;;;;;4.43;2.83;;;14.00;79.60;;;;;;5035851;28;20512;-69
2023/05/17 03:51:44;;;;;;;4.25;3.20;;;14.00;79.60;;;;;;5035463;28;20029;-69
2023/05/17 03:54:10;;;;;;;6.43;2.85;;;14.00;79.70;;;;;;5035852;28;20029;-69
2023/05/17 03:56:36;;;;;;;5.55;2.85;;;13.90;79.70;;;;;;5035672;28;20451;-69
2023/05/17 03:59:02;;;;;;;4.97;2.90;;;14.00;79.70;;;;;;5034366;28;20049;-69
2023/05/17 04:01:28;;;;;;;6.25;3.17;;;13.90;79.70;;;;;;5035558;28;20106;-69
2023/05/17 04:03:54;;;;;;;3.63;3.20;;;14.00;79.80;;;;;;5035131;28;20104;-69
2023/05/17 04:06:20;;;;;;;8.52;3.42;;;14.00;79.80;;;;;;5035266;28;20067;-69
2023/05/17 04:08:46;;;;;;;4.82;3.40;;;13.90;79.80;;;;;;5035220;28;20036;-69
2023/05/17 04:11:12;;;;;;;7.00;3.28;;;14.00;79.90;;;;;;5035188;28;20030;-69
2023/05/17 04:13:39;;;;;;;5.53;3.65;;;14.00;79.90;;;;;;5035769;28;20281;-69
2023/05/17 04:16:09;;;;;;;7.25;4.10;;;14.00;79.90;;;;;;5035388;28;20025;-69
2023/05/17 04:18:36;;;;;;;10.77;4.72;;;14.00;79.90;;;;;;5035279;28;20040;-70
2023/05/17 04:21:03;;;;;;;12.00;6.80;;;14.00;79.90;;;;;;5034078;28;20034;-69
2023/05/17 04:23:33;;;;;;;10.48;5.90;;;14.00;80.10;;;;;;5035234;28;20036;-69
2023/05/17 04:25:59;;;;;;;7.95;4.75;;;14.00;80.00;;;;;;5034994;28;20029;-69
2023/05/17 04:28:25;;;;;;;6.93;4.10;;;14.00;80.00;;;;;;5035285;28;20443;-69
2023/05/17 04:30:51;;;;;;;6.90;3.92;;;14.00;80.10;;;;;;5034949;28;20045;-69
2023/05/17 04:33:17;;;;;;;8.07;4.18;;;14.00;80.10;;;;;;5035199;28;20030;-69
2023/05/17 04:35:44;;;;;;;7.65;4.20;;;14.00;80.10;;;;;;5034784;28;20395;-69
2023/05/17 04:38:11;;;;;;;4.55;3.22;;;14.10;80.10;;;;;;5035307;28;20335;-69
2023/05/17 04:40:37;;;;;;;5.38;3.42;;;14.00;80.00;;;;;;5034781;28;20431;-69
2023/05/17 04:43:03;;;;;;;7.43;3.90;;;14.00;80.00;;;;;;5035345;28;20075;-69
2023/05/17 04:45:29;;;;;;;5.15;3.67;;;14.10;80.00;;;;;;5034795;28;20033;-69
2023/05/17 04:47:55;;;;;;;6.72;3.25;;;14.10;80.00;;;;;;5034834;28;20080;-69
2023/05/17 04:50:21;;;;;;;6.68;4.22;;;14.10;80.00;;;;;;5035040;28;20022;-69
2023/05/17 04:52:47;;;;;;;8.10;3.85;;;14.10;79.90;;;;;;5034673;28;20034;-70
2023/05/17 04:55:13;;;;;;;5.53;3.80;;;14.10;80.00;;;;;;5034619;28;20021;-70
2023/05/17 04:57:39;;;;;;;8.20;3.85;;;14.10;80.10;;;;;;5034714;28;20060;-70
2023/05/17 05:00:05;;;;;;;4.55;3.00;;;14.10;79.90;;;;;;5034669;28;20021;-70
2023/05/17 05:02:32;;;;;;;4.38;3.17;;;14.10;79.80;;;;;;5034668;28;20363;-70
2023/05/17 05:04:58;;;;;;;4.55;3.05;;;14.10;79.90;;;;;;5034557;28;20044;-70
2023/05/17 05:07:24;;;;;;;5.43;3.40;;;14.20;79.90;;;;;;5034672;28;20033;-70
2023/05/17 05:09:50;;;;;;;5.18;3.13;;;14.20;79.90;;;;;;5036417;28;20035;-70
2023/05/17 05:12:17;;;;;;;5.28;3.95;;;14.20;79.90;;;;;;5038396;28;20034;-72
2023/05/17 05:14:43;;;;;;;6.40;3.85;;;14.20;80.00;;;;;;5038281;28;20096;-72
2023/05/17 05:17:09;;;;;;;6.57;4.20;;;14.20;79.90;;;;;;5038206;28;20403;-72
2023/05/17 05:19:35;;;;;;;4.78;3.15;;;14.30;79.80;;;;;;5038517;28;20096;-71
2023/05/17 05:22:01;;;;;;;5.00;3.28;;;14.30;79.80;;;;;;5038506;28;20061;-71
2023/05/17 05:24:26;;;;;;;5.60;3.17;;;14.30;79.80;;;;;;5038488;28;20056;-71
2023/05/17 05:26:52;;;;;;;4.03;3.20;;;14.40;79.80;;;;;;5038677;28;20350;-71
2023/05/17 05:29:18;;;;;;;4.32;3.13;;;14.40;79.80;;;;;;5038336;28;20021;-74
2023/05/17 05:31:45;;;;;;;4.57;3.00;;;14.40;79.80;;;;;;5038096;28;20101;-73
2023/05/17 05:34:11;;;;;;;4.72;3.42;;;14.40;79.70;;;;;;5037917;28;20101;-71
2023/05/17 05:36:37;;;;;;;7.85;4.47;;;14.50;79.70;;;;;;5037959;28;20108;-70
2023/05/17 05:39:03;;;;;;;9.00;4.85;;;14.50;79.70;;;;;;5038353;28;20104;-70
2023/05/17 05:41:30;;;;;;;9.27;4.70;;;14.50;79.60;;;;;;5038072;28;20030;-70
2023/05/17 05:43:56;;;;;;;9.68;4.80;;;14.50;79.60;;;;;;5038192;28;20049;-70
2023/05/17 05:46:22;;;;;;;11.25;4.60;;;14.60;79.60;;;;;;5037800;28;20021;-70
2023/05/17 05:48:48;;;;;;;6.38;4.13;;;14.60;79.60;;;;;;5038189;28;20364;-70
2023/05/17 05:51:14;;;;;;;5.90;3.45;;;14.60;79.50;;;;;;5037991;28;20108;-70
2023/05/17 05:53:39;;;;;;;9.82;4.07;;;14.70;79.50;;;;;;5037452;28;20087;-69
2023/05/17 05:56:06;;;;;;;7.25;4.47;;;14.70;79.40;;;;;;5053001;28;20354;-69
2023/05/17 05:58:32;;;;;;;6.15;3.95;;;14.70;79.40;;;;;;5037173;28;20105;-70
2023/05/17 06:00:58;;;;;;;6.90;3.80;;;14.80;79.20;;;;;;5038012;28;20048;-70
2023/05/17 06:03:24;;;;;;;6.35;4.20;;;14.80;79.20;;;;;;5043517;28;20021;-70
2023/05/17 06:05:50;;;;;;;7.15;3.47;;;14.80;79.10;;;;;;5057134;28;20025;-70
2023/05/17 06:08:16;;;;;;;5.43;2.90;;;14.80;79.00;;;;;;5057221;28;20524;-69
2023/05/17 06:10:42;;;;;;;5.70;2.90;;;14.90;78.90;;;;;;5038707;28;20033;-69
2023/05/17 06:13:08;;;;;;;6.20;3.25;;;14.90;78.70;;;;;;5037257;28;20030;-70
2023/05/17 06:15:34;;;;;;;4.47;3.03;;;14.90;78.70;;;;;;5037615;28;20052;-70
2023/05/17 06:18:00;;;;;;;5.75;3.25;;;14.90;78.70;;;;;;5051105;28;20055;-70
2023/05/17 06:20:26;;;;;;;7.43;4.20;;;14.90;78.50;;;;;;5056803;28;20422;-69
2023/05/17 06:22:52;;;;;;;8.30;3.90;;;15.00;78.30;;;;;;5056910;28;20462;-70
2023/05/17 06:25:18;;;;;;;8.52;3.80;;;15.00;78.30;;;;;;5057013;28;20052;-71
2023/05/17 06:27:45;;;;;;;5.97;3.63;;;15.00;78.20;;;;;;5056847;28;20070;-70
2023/05/17 06:30:11;;;;;;;5.70;3.28;;;15.10;78.10;;;;;;5056824;28;20044;-69
2023/05/17 06:32:37;;;;;;;5.93;3.22;;;15.10;78.00;;;;;;5057342;28;20486;-70
2023/05/17 06:35:03;;;;;;;7.07;3.53;;;15.20;77.80;;;;;;5056937;28;20057;-69
2023/05/17 06:37:29;;;;;;;5.93;3.40;;;15.20;77.80;;;;;;5056610;28;20088;-69
2023/05/17 06:40:05;;;;;;;6.93;4.00;;;15.30;77.70;;;;;;5056644;28;20017;-69
2023/05/17 06:42:32;;;;;;;7.88;4.93;;;15.30;77.70;;;;;;5057031;28;20020;-68
2023/05/17 06:44:58;;;;;;;8.43;4.95;;;15.30;77.80;;;;;;5056501;28;20029;-70
2023/05/17 06:47:24;;;;;;;6.78;3.97;;;15.40;77.70;;;;;;5056795;28;20025;-71
2023/05/17 06:49:50;;;;;;;6.68;3.80;;;15.40;77.80;;;;;;5056470;28;20029;-69
2023/05/17 06:52:16;;;;;;;6.20;3.90;;;15.40;77.60;;;;;;5056374;28;20029;-69
2023/05/17 06:54:43;;;;;;;5.30;3.80;;;15.50;77.60;;;;;;5056235;28;20063;-69
2023/05/17 06:57:09;;;;;;;7.60;4.20;;;15.50;77.50;;;;;;5056245;28;20037;-70
2023/05/17 06:59:38;;;;;;;8.55;4.82;;;15.60;77.50;;;;;;5056298;28;20378;-72
2023/05/17 07:02:04;;;;;;;7.93;4.05;;;15.70;77.20;;;;;;5053332;28;20151;-70
2023/05/17 07:04:30;;;;;;;6.53;4.00;;;15.70;77.10;;;;;;5039863;28;20438;-70
2023/05/17 07:06:56;;;;;;;10.88;3.40;;;15.80;76.90;;;;;;5036458;28;20061;-70
2023/05/17 07:09:22;;;;;;;5.22;3.20;;;15.80;76.80;;;;;;5036099;28;20060;-70
2023/05/17 07:11:48;;;;;;;8.70;3.65;;;15.90;76.70;;;;;;5036641;28;20025;-70
2023/05/17 07:14:14;;;;;;;6.40;3.78;;;15.90;76.60;;;;;;5036509;28;20038;-69
2023/05/17 07:16:40;;;;;;;6.15;3.53;;;16.00;76.60;;;;;;5036466;28;20025;-70
2023/05/17 07:19:06;;;;;;;6.28;3.13;;;16.10;76.50;;;;;;5035902;28;20359;-71
2023/05/17 07:21:32;;;;;;;4.55;2.40;;;16.20;76.50;;;;;;5034905;28;20025;-70
2023/05/17 07:23:58;;;;;;;5.78;2.63;;;16.20;76.20;;;;;;5035790;28;20025;-69
2023/05/17 07:26:24;;;;;;;6.07;3.03;;;16.30;76.10;;;;;;5044306;28;20060;-70
2023/05/17 07:28:50;;;;;;;3.90;2.40;;;16.40;76.00;;;;;;5042792;28;20025;-70
2023/05/17 07:31:16;;;;;;;5.05;2.50;;;16.40;75.60;;;;;;5034916;28;20469;-68
2023/05/17 07:33:43;;;;;;;6.00;2.78;;;16.50;75.50;;;;;;5035764;28;20060;-68
2023/05/17 07:36:09;;;;;;;3.60;2.50;;;16.50;75.40;;;;;;5035633;28;20029;-68
2023/05/17 07:38:35;;;;;;;2.90;2.22;;;16.50;75.30;;;;;;5035502;28;20060;-69
2023/05/17 07:41:02;;;;;;;2.83;2.13;;;16.60;75.30;;;;;;5035605;28;20510;-67
2023/05/17 07:43:28;;;;;;;2.92;2.10;;;16.60;75.30;;;;;;5035544;28;20045;-69
2023/05/17 07:45:54;;;;;;;5.13;2.22;;;16.60;75.20;;;;;;5036011;28;20128;-67
2023/05/17 07:48:19;;;;;;;3.80;2.20;;;16.70;75.20;;;;;;5052123;28;20100;-67
2023/05/17 07:50:46;;;;;;;2.85;2.20;;;16.70;75.10;;;;;;5054368;28;20025;-68
2023/05/17 07:53:12;;;;;;;2.28;1.92;;;16.80;74.90;;;;;;5055069;28;20485;-68
2023/05/17 07:55:38;;;;;;;4.57;2.63;;;16.90;74.70;;;;;;5055211;28;20394;-68
2023/05/17 07:58:04;;;;;;;4.05;2.17;;;16.90;74.60;;;;;;5055048;28;20458;-68
2023/05/17 08:00:30;;;;;;;4.70;2.60;;;16.90;74.60;;;;;;5053629;28;20028;-70
2023/05/17 08:02:56;;;;;;;4.35;2.70;;;17.00;74.50;;;;;;5054715;28;20017;-70
2023/05/17 08:05:22;;;;;;;2.58;1.90;;;17.10;74.40;;;;;;5055657;28;20020;-70
2023/05/17 08:07:48;;;;;;;2.25;1.80;;;17.10;74.20;;;;;;5055213;28;20043;-70
2023/05/17 08:10:14;;;;;;;4.65;2.30;;;17.20;74.00;;;;;;5054807;28;20035;-70
2023/05/17 08:12:40;;;;;;;5.03;1.90;;;17.30;73.80;;;;;;5053079;28;20036;-70
2023/05/17 08:15:06;;;;;;;1.95;1.70;;;17.30;73.70;;;;;;5052882;28;20025;-70
2023/05/17 08:17:32;;;;;;;3.25;2.08;;;17.40;73.60;;;;;;5054995;28;20043;-70
2023/05/17 08:19:58;;;;;;;1.90;1.80;;;17.40;73.50;;;;;;5046215;28;20029;-70
2023/05/17 08:22:25;;;;;;;3.20;1.40;;;17.50;73.40;;;;;;5034928;28;20017;-70
2023/05/17 08:24:51;;;;;;;2.03;1.45;;;17.50;73.40;;;;;;5033865;28;20072;-70
2023/05/17 08:27:16;;;;;;;2.72;1.60;;;17.60;73.40;;;;;;5034352;28;20033;-68
2023/05/17 08:29:43;;;;;;;2.50;1.90;;;17.70;73.30;;;;;;5033598;28;20096;-68
2023/05/17 08:32:09;;;;;;;4.15;1.92;;;17.80;73.10;;;;;;5034529;28;20137;-68
2023/05/17 08:34:35;;;;;;;3.45;1.80;;;17.90;72.90;;;;;;5034422;28;20049;-68
2023/05/17 08:37:01;;;;;;;3.50;1.90;;;18.00;72.60;;;;;;5034391;28;20026;-66
2023/05/17 08:39:27;;;;;;;2.05;1.63;;;18.10;72.40;;;;;;5034458;28;20109;-66
2023/05/17 08:41:58;;;;;;;2.38;1.80;;;18.30;72.10;;;;;;5034647;28;20026;-69
2023/05/17 08:44:25;;;;;;;2.20;1.70;;;18.50;71.90;;;;;;5036880;28;20060;-69
2023/05/17 08:46:53;;;;;;;2.53;1.75;;;18.70;71.40;;;;;;5038895;28;20026;-70
2023/05/17 08:49:24;;;;;;;3.10;2.10;;;18.80;70.90;;;;;;5038813;28;20420;-70
2023/05/17 08:51:53;;;;;;;2.78;2.08;;;18.80;70.60;;;;;;5038593;28;20037;-70
2023/05/17 08:54:19;;;;;;;3.03;1.70;;;18.90;70.30;;;;;;5038121;28;20454;-70
2023/05/17 08:56:51;;;;;;;2.47;1.58;;;19.00;70.20;;;;;;5037531;28;20044;-70
2023/05/17 08:59:18;;;;;;;2.17;1.60;;;18.90;70.00;;;;;;5038648;28;20044;-70
2023/05/17 09:01:48;;;;;;;2.05;1.85;;;19.00;69.80;;;;;;5038639;28;20017;-70
2023/05/17 09:04:16;;;;;;;2.85;1.65;;;19.00;69.60;;;;;;5037622;28;20068;-70
2023/05/17 09:06:45;;;;;;;2.80;1.50;;;19.00;69.20;;;;;;5038502;28;20513;-70
2023/05/17 09:09:11;;;;;;;2.55;1.67;;;19.00;69.40;;;;;;5038528;28;20485;-70
2023/05/17 09:11:37;;;;;;;2.67;1.55;;;19.00;69.10;;;;;;5038480;28;20451;-70
2023/05/17 09:14:05;;;;;;;2.05;1.33;;;19.20;69.00;;;;;;5038560;28;20060;-70
2023/05/17 09:16:36;;;;;;;1.23;0.98;;;19.30;68.80;;;;;;5038596;28;20071;-70
2023/05/17 09:19:04;;;;;;;2.13;1.13;;;19.40;68.20;;;;;;5038834;28;20029;-70
2023/05/17 09:21:31;;;;;;;4.10;1.60;;;19.50;68.10;;;;;;5038326;28;20029;-70
2023/05/17 09:23:58;;;;;;;2.38;1.20;;;19.60;67.90;;;;;;5038101;28;20036;-70
2023/05/17 09:26:24;;;;;;;3.03;1.40;;;19.70;67.70;;;;;;5038139;28;20018;-70
2023/05/17 09:28:52;;;;;;;2.08;1.33;;;19.80;67.30;;;;;;5038159;28;20033;-70
2023/05/17 09:31:18;;;;;;;1.23;1.00;;;19.90;67.10;;;;;;5038095;28;20014;-70
2023/05/17 09:33:45;;;;;;;2.35;1.40;;;19.90;66.80;;;;;;5038463;28;20104;-70
2023/05/17 09:36:21;;;;;;;1.33;1.10;;;19.90;66.30;;;;;;5037143;28;20026;-70
2023/05/17 09:38:58;;;;;;;1.05;0.90;;;19.90;66.10;;;;;;5037885;28;20029;-70
2023/05/17 09:41:30;;;;;;;1.42;1.33;;;19.90;65.80;;;;;;5037038;28;20021;-70
2023/05/17 09:44:01;;;;;;;0.80;0.80;;;20.00;65.60;;;;;;5038079;28;20064;-70
2023/05/17 09:46:40;;;;;;;0.98;0.93;;;20.00;65.60;;;;;;5036859;28;20447;-70
2023/05/17 09:49:08;;;;;;;1.23;1.13;;;20.00;65.40;;;;;;5038305;28;20029;-70
2023/05/17 09:51:45;;;;;;;1.58;0.90;;;20.00;65.50;;;;;;5037645;28;20029;-70
2023/05/17 09:54:12;;;;;;;1.60;1.00;;;20.00;65.30;;;;;;5037784;28;20021;-70
2023/05/17 09:56:38;;;;;;;0.85;0.85;;;20.10;65.00;;;;;;5036610;28;20044;-70
2023/05/17 09:59:11;;;;;;;1.73;1.00;;;20.10;65.10;;;;;;5037540;28;20049;-70
2023/05/17 10:01:40;;;;;;;1.02;0.93;;;20.20;64.80;;;;;;5038316;28;20021;-70
2023/05/17 10:04:09;;;;;;;0.70;0.70;;;20.20;64.80;;;;;;5037786;28;20390;-70
2023/05/17 10:06:40;;;;;;;1.10;0.52;;;20.30;64.10;;;;;;5037538;28;20398;-70
2023/05/17 10:09:11;;;;;;;0.90;0.65;;;20.30;63.40;;;;;;5037667;28;20075;-70
2023/05/17 10:11:38;;;;;;;0.52;0.50;;;20.20;63.10;;;;;;5037660;28;20052;-70
2023/05/17 10:14:17;;;;;;;0.70;0.70;;;20.30;62.90;;;;;;5037611;28;20113;-70
2023/05/17 10:16:44;;;;;;;0.60;0.60;;;20.20;61.90;;;;;;5038072;28;20025;-70
2023/05/17 10:19:13;;;;;;;0.50;0.50;;;20.20;62.00;;;;;;5037166;28;20074;-70
2023/05/17 10:21:41;;;;;;;0.50;0.50;;;20.20;61.50;;;;;;5037163;28;20071;-70
2023/05/17 10:24:08;;;;;;;0.50;0.47;;;20.20;61.40;;;;;;5037055;28;20469;-70
2023/05/17 10:26:35;;;;;;;0.50;0.47;;;20.20;60.60;;;;;;5037335;28;20102;-70
2023/05/17 10:29:02;;;;;;;1.70;0.70;;;20.20;60.20;;;;;;5037550;28;20060;-70
2023/05/17 10:31:30;;;;;;;0.70;0.70;;;20.20;59.80;;;;;;5037008;28;20332;-70
2023/05/17 10:33:57;;;;;;;1.10;0.80;;;20.20;60.20;;;;;;5037102;28;20025;-70
2023/05/17 10:36:24;;;;;;;0.50;0.50;;;20.10;60.20;;;;;;5037601;28;20109;-70
2023/05/17 10:38:51;;;;;;;0.68;0.68;;;20.10;60.50;;;;;;5037033;28;20026;-70
2023/05/17 10:41:20;;;;;;;0.55;0.47;;;20.20;60.50;;;;;;5036827;28;20485;-70
2023/05/17 10:43:47;;;;;;;0.40;0.40;;;20.20;60.20;;;;;;5036992;28;20036;-70
2023/05/17 10:46:20;;;;;;;0.45;0.45;;;20.20;60.40;;;;;;5019332;28;20029;-70
2023/05/17 10:48:53;;;;;;;0.50;0.50;;;20.30;60.00;;;;;;5036914;28;20084;-70
2023/05/17 10:51:31;;;;;;;1.02;0.50;;;20.30;59.30;;;;;;5036595;28;20258;-70
2023/05/17 10:54:17;;;;;;;1.30;0.55;;;20.30;59.10;;;;;;5037000;28;20025;-70
2023/05/17 10:56:53;;;;;;;0.85;0.50;;;20.30;58.80;;;;;;5036641;28;20029;-70
2023/05/17 10:59:28;;;;;;;0.60;0.60;;;20.30;58.80;;;;;;5036750;28;20095;-70
2023/05/17 11:02:05;;;;;;;0.70;0.63;;;20.30;58.40;;;;;;5036393;28;20029;-70
2023/05/17 11:04:37;;;;;;;1.45;0.50;;;20.40;58.40;;;;;;5036572;28;20415;-70
2023/05/17 11:07:25;;;;;;;0.52;0.40;;;20.40;58.30;;;;;;5036222;28;20021;-70
2023/05/17 11:10:05;;;;;;;1.60;0.70;;;20.30;57.80;;;;;;5036217;28;20121;-70
2023/05/17 11:12:38;;;;;;;0.50;0.50;;;20.40;58.20;;;;;;5036209;28;20113;-70
2023/05/17 11:15:15;;;;;;;0.90;0.65;;;20.40;58.30;;;;;;5035294;28;20105;-70
2023/05/17 11:17:48;;;;;;;0.55;0.40;;;20.40;57.80;;;;;;5035105;28;20026;-70
2023/05/17 11:20:15;;;;;;;0.60;0.60;;;20.50;58.10;;;;;;5036029;28;20506;-70
2023/05/17 11:22:49;;;;;;;1.45;0.50;;;20.50;58.00;;;;;;5036038;28;20053;-71
2023/05/17 11:25:17;;;;;;;0.40;0.40;;;20.60;58.00;;;;;;5034995;28;20021;-70
2023/05/17 11:27:48;;;;;;;0.70;0.40;;;20.60;58.00;;;;;;5035873;28;20022;-70
2023/05/17 11:30:23;;;;;;;1.38;0.70;;;20.70;57.70;;;;;;5036397;28;20074;-70
2023/05/17 11:32:56;;;;;;;0.68;0.60;;;20.70;56.70;;;;;;5036128;28;20037;-70
2023/05/17 11:35:43;;;;;;;0.38;0.38;;;20.70;57.10;;;;;;5035995;28;20018;-70
2023/05/17 11:38:18;;;;;;;1.13;0.60;;;20.70;57.10;;;;;;5035997;28;20061;-70
2023/05/17 11:40:46;;;;;;;0.68;0.68;;;20.70;56.50;;;;;;5035938;28;20067;-70
2023/05/17 11:43:17;;;;;;;0.65;0.65;;;20.60;56.20;;;;;;5035913;28;20028;-70
2023/05/17 11:46:02;;;;;;;0.70;0.60;;;20.60;56.30;;;;;;5035807;28;20044;-70
2023/05/17 11:48:30;;;;;;;0.95;0.85;;;20.60;55.50;;;;;;5035529;28;20042;-70
2023/05/17 11:50:56;;;;;;;0.63;0.63;;;20.60;56.10;;;;;;5035441;28;20467;-70
2023/05/17 11:53:24;;;;;;;1.90;0.90;;;20.70;56.20;;;;;;5035346;28;20022;-70
2023/05/17 11:55:51;;;;;;;1.02;0.80;;;20.70;56.10;;;;;;5035268;28;20033;-70
2023/05/17 11:58:19;;;;;;;0.88;0.70;;;20.90;56.10;;;;;;5035048;28;20056;-70
2023/05/17 12:00:51;;;;;;;1.00;0.80;;;20.90;55.80;;;;;;5035557;28;20018;-71
2023/05/17 12:03:22;;;;;;;0.80;0.57;;;20.90;54.50;;;;;;5035798;28;20036;-70
2023/05/17 12:05:50;;;;;;;0.60;0.60;;;20.90;55.50;;;;;;5034491;28;20028;-71
2023/05/17 12:08:18;;;;;;;1.25;1.00;;;20.90;54.60;;;;;;5035407;28;20497;-70
2023/05/17 12:10:49;;;;;;;1.75;0.70;;;20.90;53.90;;;;;;5035402;28;20079;-70
2023/05/17 12:13:15;;;;;;;2.17;0.63;;;20.90;54.80;;;;;;5035682;28;20486;-70
2023/05/17 12:15:45;;;;;;;3.80;0.70;;;20.90;54.70;;;;;;5034953;28;20060;-71
2023/05/17 12:18:12;;;;;;;0.80;0.70;;;20.90;54.70;;;;;;5034966;28;20469;-70
2023/05/17 12:20:38;;;;;;;0.60;0.50;;;20.90;54.70;;;;;;5017198;28;20347;-70
2023/05/17 12:23:04;;;;;;;0.40;0.40;;;20.90;54.30;;;;;;5034958;28;20362;-70
2023/05/17 12:25:30;;;;;;;0.50;0.50;;;21.00;54.70;;;;;;5034983;28;20567;-70
2023/05/17 12:28:21;;;;;;;0.57;0.50;;;21.00;54.20;;;;;;5035195;28;20076;-70
2023/05/17 12:30:52;;;;;;;0.60;0.60;;;21.10;54.30;;;;;;5035259;28;20029;-70
2023/05/17 12:33:19;;;;;;;0.40;0.40;;;21.10;54.30;;;;;;5035254;28;20030;-71
2023/05/17 12:35:45;;;;;;;0.40;0.40;;;21.20;54.30;;;;;;5034760;28;20496;-70
2023/05/17 12:38:12;;;;;;;2.53;0.60;;;21.20;54.10;;;;;;5035052;28;20026;-70
2023/05/17 12:40:39;;;;;;;0.93;0.70;;;21.30;54.00;;;;;;5034832;28;20025;-70
2023/05/17 12:43:05;;;;;;;0.90;0.60;;;21.40;54.00;;;;;;5035352;28;20030;-71
2023/05/17 12:45:33;;;;;;;1.27;0.68;;;21.40;53.80;;;;;;5034734;28;20032;-71
2023/05/17 12:47:59;;;;;;;0.50;0.50;;;21.40;52.90;;;;;;5033805;28;20489;-71
2023/05/17 12:50:29;;;;;;;0.77;0.65;;;21.40;52.90;;;;;;5034751;28;20021;-71